createdAt,value
2023-04-19T00:00:02.471Z,33.76
2023-04-19T00:01:02.530Z,33.76
2023-04-19T00:02:02.664Z,33.78
2023-04-19T00:03:02.749Z,33.79
2023-04-19T00:04:02.811Z,33.79
2023-04-19T00:05:02.835Z,33.77
2023-04-19T00:06:02.771Z,33.76
2023-04-19T00:07:02.746Z,33.75
2023-04-19T00:08:02.815Z,33.74
2023-04-19T00:09:02.860Z,33.73
2023-04-19T00:10:02.905Z,33.70
2023-04-19T00:11:02.963Z,33.70
2023-04-19T00:12:03.019Z,33.69
2023-04-19T00:13:03.019Z,33.67
2023-04-19T00:14:03.096Z,33.71
2023-04-19T00:15:03.125Z,33.68
2023-04-19T00:16:03.236Z,33.67
2023-04-19T00:17:03.352Z,33.67
2023-04-19T00:18:03.522Z,33.68
2023-04-19T00:19:03.396Z,33.67
2023-04-19T00:20:03.400Z,33.68
2023-04-19T00:21:03.466Z,33.68
2023-04-19T00:22:03.558Z,33.67
2023-04-19T00:23:03.568Z,33.66
2023-04-19T00:24:03.637Z,33.67
2023-04-19T00:25:03.691Z,33.65
2023-04-19T00:26:03.752Z,33.67
2023-04-19T00:27:03.796Z,33.67
2023-04-19T00:28:03.838Z,33.64
2023-04-19T00:29:03.895Z,33.65
2023-04-19T00:30:03.914Z,33.66
2023-04-19T00:31:04.014Z,33.67
2023-04-19T00:32:04.043Z,33.62
2023-04-19T00:33:04.177Z,33.61
2023-04-19T00:34:04.155Z,33.61
2023-04-19T00:35:04.200Z,33.60
2023-04-19T00:36:04.236Z,33.55
2023-04-19T00:37:04.302Z,33.55
2023-04-19T00:38:04.338Z,33.55
2023-04-19T00:39:04.391Z,33.55
2023-04-19T00:40:04.457Z,33.55
2023-04-19T00:41:04.513Z,33.52
2023-04-19T00:42:04.551Z,33.53
2023-04-19T00:43:04.586Z,33.52
2023-04-19T00:44:04.621Z,33.52
2023-04-19T00:45:04.700Z,33.52
2023-04-19T00:46:04.785Z,33.51
2023-04-19T00:47:04.789Z,33.52
2023-04-19T00:48:04.888Z,33.49
2023-04-19T00:49:04.952Z,33.50
2023-04-19T00:50:04.974Z,33.49
2023-04-19T00:51:05.008Z,33.47
2023-04-19T00:52:05.088Z,33.47
2023-04-19T00:53:05.135Z,33.47
2023-04-19T00:54:06.010Z,33.48
2023-04-19T00:55:05.252Z,33.49
2023-04-19T00:56:05.338Z,33.48
2023-04-19T00:57:05.349Z,33.48
2023-04-19T00:58:05.425Z,33.46
2023-04-19T00:59:05.497Z,33.47
2023-04-19T01:00:05.540Z,33.42
2023-04-19T01:01:05.598Z,33.41
2023-04-19T01:02:05.674Z,33.46
2023-04-19T01:03:05.840Z,33.48
2023-04-19T01:04:05.808Z,33.45
2023-04-19T01:05:05.802Z,33.47
2023-04-19T01:06:05.837Z,33.46
2023-04-19T01:07:05.916Z,33.48
2023-04-19T01:08:05.961Z,33.42
2023-04-19T01:09:06.068Z,33.46
2023-04-19T01:10:06.087Z,33.46
2023-04-19T01:11:06.160Z,33.50
2023-04-19T01:12:06.252Z,33.46
2023-04-19T01:13:06.284Z,33.44
2023-04-19T01:14:06.393Z,33.45
2023-04-19T01:15:06.421Z,33.43
2023-04-19T01:16:06.495Z,33.43
2023-04-19T01:17:06.503Z,33.41
2023-04-19T01:18:06.668Z,33.42
2023-04-19T01:19:06.727Z,33.42
2023-04-19T01:20:06.672Z,33.43
2023-04-19T01:21:06.738Z,33.40
2023-04-19T01:22:06.792Z,33.40
2023-04-19T01:23:06.876Z,33.40
2023-04-19T01:24:06.923Z,33.44
2023-04-19T01:25:06.996Z,33.41
2023-04-19T01:26:07.041Z,33.42
2023-04-19T01:27:07.094Z,33.42
2023-04-19T01:28:07.173Z,33.43
2023-04-19T01:29:07.292Z,33.42
2023-04-19T01:30:07.292Z,33.39
2023-04-19T01:31:07.359Z,33.40
2023-04-19T01:32:07.450Z,33.45
2023-04-19T01:33:07.507Z,33.42
2023-04-19T01:34:07.582Z,33.43
2023-04-19T01:35:07.594Z,33.43
2023-04-19T01:36:07.704Z,33.42
2023-04-19T01:37:07.746Z,33.43
2023-04-19T01:38:07.791Z,33.45
2023-04-19T01:39:07.861Z,33.44
2023-04-19T01:40:07.901Z,33.45
2023-04-19T01:41:07.952Z,33.48
2023-04-19T01:42:07.991Z,33.46
2023-04-19T01:43:08.087Z,33.47
2023-04-19T01:44:08.121Z,33.47
2023-04-19T01:45:08.188Z,33.49
2023-04-19T01:46:08.253Z,33.46
2023-04-19T01:47:08.436Z,33.47
2023-04-19T01:48:08.391Z,33.46
2023-04-19T01:49:08.427Z,33.46
2023-04-19T01:50:08.487Z,33.45
2023-04-19T01:51:08.528Z,33.46
2023-04-19T01:52:08.607Z,33.39
2023-04-19T01:53:08.673Z,33.44
2023-04-19T01:54:08.682Z,33.40
2023-04-19T01:55:08.735Z,33.43
2023-04-19T01:56:08.734Z,33.42
2023-04-19T01:57:08.722Z,33.42
2023-04-19T01:58:08.741Z,33.38
2023-04-19T01:59:08.812Z,33.39
2023-04-19T02:00:08.838Z,33.37
2023-04-19T02:01:08.816Z,33.37
2023-04-19T02:02:08.840Z,33.39
2023-04-19T02:03:08.942Z,33.34
2023-04-19T02:04:08.912Z,33.34
2023-04-19T02:05:08.858Z,33.34
2023-04-19T02:06:08.805Z,33.34
2023-04-19T02:07:08.817Z,33.35
2023-04-19T02:08:08.795Z,33.36
2023-04-19T02:09:08.814Z,33.37
2023-04-19T02:10:08.796Z,33.35
2023-04-19T02:11:08.787Z,33.34
2023-04-19T02:12:08.801Z,33.35
2023-04-19T02:13:08.779Z,33.35
2023-04-19T02:14:08.785Z,33.36
2023-04-19T02:15:08.748Z,33.31
2023-04-19T02:16:08.793Z,33.33
2023-04-19T02:17:08.802Z,33.32
2023-04-19T02:18:08.872Z,33.36
2023-04-19T02:19:08.762Z,33.33
2023-04-19T02:20:08.777Z,33.32
2023-04-19T02:21:08.771Z,33.35
2023-04-19T02:22:08.773Z,33.33
2023-04-19T02:23:08.777Z,33.34
2023-04-19T02:24:08.790Z,33.35
2023-04-19T02:25:08.755Z,33.35
2023-04-19T02:26:08.728Z,33.36
2023-04-19T02:27:08.748Z,33.37
2023-04-19T02:28:08.765Z,33.38
2023-04-19T02:29:08.753Z,33.40
2023-04-19T02:30:08.761Z,33.41
2023-04-19T02:31:08.761Z,33.40
2023-04-19T02:32:08.845Z,33.39
2023-04-19T02:33:08.815Z,33.38
2023-04-19T02:34:08.826Z,33.40
2023-04-19T02:35:08.768Z,33.40
2023-04-19T02:36:08.781Z,33.42
2023-04-19T02:37:08.784Z,33.43
2023-04-19T02:38:08.782Z,33.43
2023-04-19T02:39:08.783Z,33.43
2023-04-19T02:40:08.784Z,33.43
2023-04-19T02:41:08.767Z,33.43
2023-04-19T02:42:08.802Z,33.44
2023-04-19T02:43:08.778Z,33.44
2023-04-19T02:44:08.828Z,33.46
2023-04-19T02:45:08.791Z,33.44
2023-04-19T02:46:08.795Z,33.43
2023-04-19T02:47:08.829Z,33.47
2023-04-19T02:48:08.879Z,33.44
2023-04-19T02:49:08.814Z,33.47
2023-04-19T02:50:08.878Z,33.45
2023-04-19T02:51:08.862Z,33.46
2023-04-19T02:52:08.902Z,33.47
2023-04-19T02:53:08.897Z,33.45
2023-04-19T02:54:08.886Z,33.46
2023-04-19T02:55:08.898Z,33.47
2023-04-19T02:56:08.913Z,33.49
2023-04-19T02:57:08.921Z,33.46
2023-04-19T02:58:08.919Z,33.47
2023-04-19T02:59:08.902Z,33.49
2023-04-19T03:00:08.950Z,33.49
2023-04-19T03:01:08.955Z,33.48
2023-04-19T03:02:08.989Z,33.48
2023-04-19T03:03:09.024Z,33.49
2023-04-19T03:04:08.986Z,33.52
2023-04-19T03:05:08.906Z,33.50
2023-04-19T03:06:08.902Z,33.53
2023-04-19T03:07:08.946Z,33.54
2023-04-19T03:08:08.946Z,33.52
2023-04-19T03:09:08.980Z,33.55
2023-04-19T03:10:08.969Z,33.57
2023-04-19T03:11:08.950Z,33.58
2023-04-19T03:12:08.927Z,33.59
2023-04-19T03:13:08.945Z,33.57
2023-04-19T03:14:08.958Z,33.58
2023-04-19T03:15:08.914Z,33.56
2023-04-19T03:16:08.934Z,33.60
2023-04-19T03:17:08.930Z,33.60
2023-04-19T03:18:08.971Z,33.62
2023-04-19T03:19:08.939Z,33.64
2023-04-19T03:20:08.930Z,33.64
2023-04-19T03:21:08.973Z,33.65
2023-04-19T03:22:08.951Z,33.66
2023-04-19T03:23:08.980Z,33.69
2023-04-19T03:24:08.997Z,33.67
2023-04-19T03:25:08.980Z,33.69
2023-04-19T03:26:08.979Z,33.69
2023-04-19T03:27:08.951Z,33.69
2023-04-19T03:28:08.990Z,33.71
2023-04-19T03:29:08.977Z,33.70
2023-04-19T03:30:08.977Z,33.74
2023-04-19T03:31:09.020Z,33.75
2023-04-19T03:32:08.987Z,33.74
2023-04-19T03:33:09.050Z,33.76
2023-04-19T03:34:09.036Z,33.77
2023-04-19T03:35:09.008Z,33.79
2023-04-19T03:36:09.051Z,33.81
2023-04-19T03:37:09.024Z,33.82
2023-04-19T03:38:09.087Z,33.85
2023-04-19T03:39:09.054Z,33.84
2023-04-19T03:40:09.060Z,33.84
2023-04-19T03:41:09.119Z,33.87
2023-04-19T03:42:09.102Z,33.86
2023-04-19T03:43:09.099Z,33.86
2023-04-19T03:44:09.136Z,33.86
2023-04-19T03:45:09.148Z,33.84
2023-04-19T03:46:09.143Z,33.85
2023-04-19T03:47:09.135Z,33.85
2023-04-19T03:48:09.205Z,33.85
2023-04-19T03:49:09.165Z,33.88
2023-04-19T03:50:09.150Z,33.91
2023-04-19T03:51:09.184Z,33.89
2023-04-19T03:52:09.190Z,33.90
2023-04-19T03:53:09.209Z,33.89
2023-04-19T03:54:09.176Z,33.89
2023-04-19T03:55:09.197Z,33.88
2023-04-19T03:56:09.217Z,33.90
2023-04-19T03:57:09.204Z,33.89
2023-04-19T03:58:09.224Z,33.87
2023-04-19T03:59:09.228Z,33.91
2023-04-19T04:00:09.229Z,33.91
2023-04-19T04:01:09.239Z,33.89
2023-04-19T04:02:09.397Z,33.93
2023-04-19T04:03:09.459Z,33.91
2023-04-19T04:04:09.485Z,33.91
2023-04-19T04:05:09.545Z,33.91
2023-04-19T04:06:09.328Z,33.89
2023-04-19T04:07:09.364Z,33.90
2023-04-19T04:08:09.379Z,33.93
2023-04-19T04:09:09.394Z,33.94
2023-04-19T04:10:09.408Z,33.95
2023-04-19T04:11:09.438Z,33.98
2023-04-19T04:12:09.444Z,33.97
2023-04-19T04:13:09.486Z,33.97
2023-04-19T04:14:09.514Z,33.97
2023-04-19T04:15:09.473Z,33.97
2023-04-19T04:16:09.524Z,33.97
2023-04-19T04:17:09.550Z,34.00
2023-04-19T04:18:09.613Z,34.01
2023-04-19T04:19:09.755Z,34.00
2023-04-19T04:20:09.617Z,34.03
2023-04-19T04:21:09.647Z,34.04
2023-04-19T04:22:09.677Z,34.03
2023-04-19T04:23:09.673Z,34.07
2023-04-19T04:24:09.693Z,34.06
2023-04-19T04:25:09.703Z,34.05
2023-04-19T04:26:09.772Z,34.08
2023-04-19T04:27:09.782Z,34.07
2023-04-19T04:28:09.857Z,34.07
2023-04-19T04:29:09.844Z,34.09
2023-04-19T04:30:09.863Z,34.12
2023-04-19T04:31:09.865Z,34.12
2023-04-19T04:32:09.986Z,34.11
2023-04-19T04:33:09.925Z,34.13
2023-04-19T04:34:09.972Z,34.16
2023-04-19T04:35:09.971Z,34.15
2023-04-19T04:36:09.993Z,34.17
2023-04-19T04:37:10.004Z,34.22
2023-04-19T04:38:21.402Z,34.19
2023-04-19T04:39:11.074Z,34.24
2023-04-19T04:40:10.065Z,34.22
2023-04-19T04:41:10.049Z,34.23
2023-04-19T04:42:10.038Z,34.27
2023-04-19T04:43:10.002Z,34.29
2023-04-19T04:44:12.951Z,34.29
2023-04-19T04:45:10.037Z,34.28
2023-04-19T04:46:10.058Z,34.32
2023-04-19T04:47:10.003Z,34.33
2023-04-19T04:48:09.980Z,34.37
2023-04-19T04:49:09.989Z,34.44
2023-04-19T04:50:09.963Z,34.50
2023-04-19T04:51:09.938Z,34.65
2023-04-19T04:52:09.948Z,34.67
2023-04-19T04:53:11.648Z,34.82
2023-04-19T04:54:09.957Z,35.56
2023-04-19T04:55:09.946Z,35.92
2023-04-19T04:56:09.926Z,36.00
2023-04-19T04:57:09.951Z,35.96
2023-04-19T04:58:09.920Z,36.13
2023-04-19T04:59:09.924Z,36.29
2023-04-19T05:00:09.897Z,36.37
2023-04-19T05:01:09.970Z,36.42
2023-04-19T05:02:09.972Z,36.39
2023-04-19T05:03:10.099Z,36.57
2023-04-19T05:04:09.958Z,36.80
2023-04-19T05:05:09.865Z,36.84
2023-04-19T05:06:09.867Z,37.29
2023-04-19T05:07:09.872Z,37.44
2023-04-19T05:08:09.836Z,37.46
2023-04-19T05:09:09.863Z,37.38
2023-04-19T05:10:09.845Z,37.41
2023-04-19T05:11:09.848Z,37.59
2023-04-19T05:12:09.829Z,37.63
2023-04-19T05:13:09.971Z,37.75
2023-04-19T05:14:09.993Z,37.83
2023-04-19T05:15:10.036Z,38.16
2023-04-19T05:16:10.106Z,38.06
2023-04-19T05:17:10.155Z,37.98
2023-04-19T05:18:10.264Z,38.00
2023-04-19T05:19:10.302Z,38.13
2023-04-19T05:20:10.322Z,38.30
2023-04-19T05:21:10.393Z,38.51
2023-04-19T05:22:10.427Z,38.47
2023-04-19T05:23:10.501Z,38.73
2023-04-19T05:24:10.581Z,38.82
2023-04-19T05:25:10.666Z,38.69
2023-04-19T05:26:10.688Z,38.84
2023-04-19T05:27:10.715Z,38.85
2023-04-19T05:28:10.811Z,38.76
2023-04-19T05:29:10.854Z,38.83
2023-04-19T05:30:10.900Z,38.91
2023-04-19T05:31:10.931Z,39.06
2023-04-19T05:32:11.020Z,39.23
2023-04-19T05:33:11.040Z,39.05
2023-04-19T05:34:11.092Z,39.06
2023-04-19T05:35:11.106Z,39.27
2023-04-19T05:36:11.146Z,39.52
2023-04-19T05:37:11.235Z,39.87
2023-04-19T05:38:11.260Z,39.83
2023-04-19T05:39:11.312Z,39.92
2023-04-19T05:40:11.363Z,40.54
2023-04-19T05:41:11.383Z,40.55
2023-04-19T05:42:11.411Z,40.61
2023-04-19T05:43:11.487Z,40.52
2023-04-19T05:44:11.513Z,41.31
2023-04-19T05:45:11.607Z,41.30
2023-04-19T05:46:11.497Z,41.07
2023-04-19T05:47:11.505Z,41.24
2023-04-19T05:48:11.523Z,41.51
2023-04-19T05:49:11.649Z,41.44
2023-04-19T05:50:11.553Z,41.49
2023-04-19T05:51:11.544Z,41.53
2023-04-19T05:52:11.559Z,41.87
2023-04-19T05:53:11.587Z,42.16
2023-04-19T05:54:11.647Z,42.86
2023-04-19T05:55:11.735Z,43.00
2023-04-19T05:56:11.749Z,43.26
2023-04-19T05:57:11.815Z,43.55
2023-04-19T05:58:11.896Z,43.47
2023-04-19T05:59:12.161Z,43.36
2023-04-19T06:00:12.017Z,43.26
2023-04-19T06:01:12.012Z,43.24
2023-04-19T06:02:12.163Z,43.19
2023-04-19T06:03:12.216Z,42.95
2023-04-19T06:04:12.220Z,42.80
2023-04-19T06:05:12.402Z,42.69
2023-04-19T06:06:12.201Z,42.60
2023-04-19T06:07:22.081Z,42.51
2023-04-19T06:08:13.186Z,42.36
2023-04-19T06:09:12.275Z,42.36
2023-04-19T06:10:12.173Z,42.19
2023-04-19T06:11:23.413Z,42.10
2023-04-19T06:12:13.169Z,42.22
2023-04-19T06:13:12.158Z,42.39
2023-04-19T06:14:12.161Z,42.54
2023-04-19T06:15:12.160Z,42.53
2023-04-19T06:16:12.205Z,42.61
2023-04-19T06:17:12.156Z,42.32
2023-04-19T06:18:19.190Z,42.30
2023-04-19T06:19:13.088Z,42.50
2023-04-19T06:20:12.115Z,42.40
2023-04-19T06:21:12.092Z,42.22
2023-04-19T06:22:12.090Z,42.16
2023-04-19T06:23:12.071Z,42.02
2023-04-19T06:24:12.129Z,42.05
2023-04-19T06:25:12.045Z,42.19
2023-04-19T06:26:12.065Z,42.24
2023-04-19T06:27:12.054Z,42.07
2023-04-19T06:28:12.066Z,41.97
2023-04-19T06:29:12.031Z,42.28
2023-04-19T06:30:12.075Z,42.53
2023-04-19T06:31:12.126Z,42.52
2023-04-19T06:32:12.028Z,42.37
2023-04-19T06:33:12.015Z,42.33
2023-04-19T06:34:12.028Z,42.28
2023-04-19T06:35:11.998Z,42.26
2023-04-19T06:36:11.983Z,42.25
2023-04-19T06:37:11.959Z,42.21
2023-04-19T06:38:11.982Z,42.08
2023-04-19T06:39:11.966Z,42.13
2023-04-19T06:40:11.974Z,42.17
2023-04-19T06:41:11.950Z,42.00
2023-04-19T06:42:11.975Z,41.87
2023-04-19T06:43:11.959Z,41.85
2023-04-19T06:44:12.006Z,41.91
2023-04-19T06:45:11.946Z,41.75
2023-04-19T06:46:12.014Z,41.60
2023-04-19T06:47:11.916Z,41.86
2023-04-19T06:48:11.924Z,43.08
2023-04-19T06:49:12.187Z,42.85
2023-04-19T06:50:11.944Z,42.97
2023-04-19T06:51:11.892Z,43.82
2023-04-19T06:52:12.668Z,43.31
2023-04-19T06:53:11.876Z,43.49
2023-04-19T06:54:11.877Z,43.48
2023-04-19T06:55:11.869Z,44.07
2023-04-19T06:56:11.881Z,44.35
2023-04-19T06:57:11.978Z,44.70
2023-04-19T06:58:11.979Z,44.93
2023-04-19T06:59:11.999Z,45.19
2023-04-19T07:00:12.154Z,44.92
2023-04-19T07:01:12.096Z,45.02
2023-04-19T07:02:12.120Z,45.07
2023-04-19T07:03:12.183Z,45.18
2023-04-19T07:04:12.193Z,45.37
2023-04-19T07:05:12.254Z,45.43
2023-04-19T07:06:12.114Z,45.70
2023-04-19T07:07:12.136Z,45.71
2023-04-19T07:08:12.135Z,45.79
2023-04-19T07:09:12.220Z,45.97
2023-04-19T07:10:12.229Z,45.95
2023-04-19T07:11:12.201Z,46.07
2023-04-19T07:12:12.181Z,46.23
2023-04-19T07:13:12.238Z,46.25
2023-04-19T07:14:12.250Z,46.25
2023-04-19T07:15:12.241Z,46.25
2023-04-19T07:16:12.268Z,46.29
2023-04-19T07:17:12.230Z,46.37
2023-04-19T07:18:12.264Z,46.52
2023-04-19T07:19:12.338Z,46.47
2023-04-19T07:20:12.358Z,46.51
2023-04-19T07:21:12.616Z,46.62
2023-04-19T07:22:14.338Z,46.74
2023-04-19T07:23:12.526Z,46.88
2023-04-19T07:24:12.595Z,46.96
2023-04-19T07:25:12.660Z,46.92
2023-04-19T07:26:12.738Z,46.99
2023-04-19T07:27:12.770Z,46.96
2023-04-19T07:28:12.830Z,47.06
2023-04-19T07:29:12.943Z,47.18
2023-04-19T07:30:12.985Z,47.29
2023-04-19T07:31:12.990Z,47.34
2023-04-19T07:32:13.072Z,47.41
2023-04-19T07:33:13.173Z,47.58
2023-04-19T07:34:13.190Z,47.57
2023-04-19T07:35:13.223Z,47.61
2023-04-19T07:36:13.254Z,47.67
2023-04-19T07:37:13.400Z,47.72
2023-04-19T07:38:13.350Z,47.82
2023-04-19T07:39:13.724Z,48.01
2023-04-19T07:40:13.468Z,48.03
2023-04-19T07:41:13.512Z,48.27
2023-04-19T07:42:13.519Z,47.89
2023-04-19T07:43:13.555Z,47.83
2023-04-19T07:44:13.824Z,47.57
2023-04-19T07:45:13.693Z,47.66
2023-04-19T07:46:13.754Z,46.63
2023-04-19T07:47:13.778Z,46.85
2023-04-19T07:48:13.850Z,46.37
2023-04-19T07:49:14.210Z,46.34
2023-04-19T07:50:13.973Z,46.08
2023-04-19T07:51:13.989Z,46.09
2023-04-19T07:52:13.975Z,46.02
2023-04-19T07:53:14.116Z,45.96
2023-04-19T07:54:14.248Z,45.87
2023-04-19T07:55:13.995Z,46.12
2023-04-19T07:56:13.982Z,45.95
2023-04-19T07:57:14.004Z,45.78
2023-04-19T07:58:14.029Z,45.63
2023-04-19T07:59:14.017Z,45.50
2023-04-19T08:00:14.011Z,45.25
2023-04-19T08:01:14.036Z,45.11
2023-04-19T08:02:14.204Z,44.94
2023-04-19T08:03:14.351Z,44.79
2023-04-19T08:04:14.617Z,44.72
2023-04-19T08:05:14.256Z,44.63
2023-04-19T08:06:14.141Z,44.59
2023-04-19T08:07:14.175Z,44.47
2023-04-19T08:08:14.203Z,44.42
2023-04-19T08:09:14.293Z,44.40
2023-04-19T08:10:14.278Z,44.27
2023-04-19T08:11:14.267Z,44.52
2023-04-19T08:12:26.287Z,44.55
2023-04-19T08:13:15.337Z,44.52
2023-04-19T08:17:25.299Z,44.33
2023-04-19T08:18:15.332Z,44.22
2023-04-19T08:19:14.276Z,44.08
2023-04-19T08:20:14.251Z,44.11
2023-04-19T08:21:14.278Z,43.98
2023-04-19T08:22:14.267Z,43.91
2023-04-19T08:23:22.916Z,43.81
2023-04-19T08:24:15.589Z,43.80
2023-04-19T08:25:14.437Z,43.59
2023-04-19T08:26:14.236Z,43.62
2023-04-19T08:27:14.201Z,44.04
2023-04-19T08:28:14.247Z,44.04
2023-04-19T08:29:14.201Z,43.88
2023-04-19T08:30:14.229Z,43.89
2023-04-19T08:31:14.205Z,44.01
2023-04-19T08:32:14.218Z,43.78
2023-04-19T08:33:14.244Z,43.78
2023-04-19T08:34:14.219Z,43.91
2023-04-19T08:35:14.187Z,43.75
2023-04-19T08:36:17.153Z,43.84
2023-04-19T08:37:15.163Z,43.62
2023-04-19T08:38:14.195Z,43.46
2023-04-19T08:40:14.114Z,43.38
2023-04-19T08:41:14.221Z,43.35
2023-04-19T08:43:14.118Z,43.57
2023-04-19T08:44:14.578Z,43.63
2023-04-19T08:46:14.141Z,43.74
2023-04-19T08:47:23.528Z,43.77
2023-04-19T08:48:15.104Z,43.92
2023-04-19T08:49:14.314Z,43.81
2023-04-19T08:51:14.079Z,43.52
2023-04-19T08:52:14.058Z,43.62
2023-04-19T08:53:23.881Z,43.67
2023-04-19T08:54:15.079Z,43.58
2023-04-19T08:55:14.052Z,43.54
2023-04-19T08:56:21.108Z,43.49
2023-04-19T08:57:15.042Z,43.41
2023-04-19T08:58:28.548Z,43.41
2023-04-19T08:59:18.466Z,43.45
2023-04-19T09:00:14.206Z,43.42
2023-04-19T09:01:26.266Z,43.43
2023-04-19T09:02:15.031Z,43.49
2023-04-19T09:03:14.179Z,43.32
2023-04-19T09:05:14.060Z,43.24
2023-04-19T09:06:14.106Z,43.28
2023-04-19T09:07:13.964Z,43.13
2023-04-19T09:08:14.404Z,42.92
2023-04-19T09:09:24.419Z,42.67
2023-04-19T09:10:14.961Z,42.78
2023-04-19T09:11:13.940Z,42.82
2023-04-19T09:12:13.907Z,42.56
2023-04-19T09:13:13.917Z,42.39
2023-04-19T09:14:13.928Z,42.45
2023-04-19T09:15:14.222Z,42.72
2023-04-19T09:16:13.911Z,42.52
2023-04-19T09:17:14.801Z,42.80
2023-04-19T09:18:13.896Z,42.84
2023-04-19T09:19:23.484Z,42.58
2023-04-19T09:20:14.862Z,42.44
2023-04-19T09:21:13.904Z,42.53
2023-04-19T09:22:13.898Z,42.73
2023-04-19T09:23:13.877Z,42.99
2023-04-19T09:24:14.199Z,42.92
2023-04-19T09:26:22.235Z,43.18
2023-04-19T09:27:14.812Z,43.16
2023-04-19T09:28:13.804Z,42.87
2023-04-19T09:29:13.969Z,42.64
2023-04-19T09:30:24.086Z,42.59
2023-04-19T09:31:35.298Z,42.48
2023-04-19T09:32:14.823Z,42.45
2023-04-19T09:33:13.857Z,42.53
2023-04-19T09:34:13.786Z,42.52
2023-04-19T09:35:13.767Z,42.58
2023-04-19T09:36:14.682Z,42.64
2023-04-19T09:37:22.846Z,42.59
2023-04-19T09:38:14.839Z,42.71
2023-04-19T09:39:13.873Z,42.71
2023-04-19T09:40:13.723Z,43.64
2023-04-19T09:41:13.793Z,43.56
2023-04-19T09:42:14.631Z,43.92
2023-04-19T09:45:29.064Z,45.83
2023-04-19T09:46:14.701Z,46.14
2023-04-19T09:47:13.657Z,45.43
2023-04-19T09:48:13.689Z,44.99
2023-04-19T09:49:23.089Z,44.58
2023-04-19T09:50:23.929Z,44.53
2023-04-19T09:51:14.904Z,44.41
2023-04-19T09:52:13.684Z,44.45
2023-04-19T09:53:13.657Z,44.20
2023-04-19T09:54:13.654Z,44.42
2023-04-19T09:55:24.944Z,44.28
2023-04-19T09:56:14.656Z,44.06
2023-04-19T09:57:13.644Z,44.08
2023-04-19T09:58:13.593Z,44.01
2023-04-19T09:59:20.942Z,43.90
2023-04-19T10:00:14.624Z,43.62
2023-04-19T10:01:15.919Z,43.62
2023-04-19T10:02:13.636Z,43.59
2023-04-19T10:03:13.686Z,43.45
2023-04-19T10:04:25.895Z,43.32
2023-04-19T10:06:31.716Z,43.78
2023-04-19T10:08:13.627Z,43.93
2023-04-19T10:09:13.670Z,43.65
2023-04-19T10:10:23.909Z,43.87
2023-04-19T10:11:14.522Z,43.89
2023-04-19T10:12:31.155Z,43.56
2023-04-19T10:13:19.793Z,43.52
2023-04-19T10:14:14.521Z,43.33
2023-04-19T10:15:13.519Z,43.51
2023-04-19T10:16:19.640Z,43.17
2023-04-19T10:17:14.814Z,43.29
2023-04-19T10:18:13.482Z,43.49
2023-04-19T10:19:13.642Z,43.31
2023-04-19T10:20:13.485Z,43.25
2023-04-19T10:21:13.493Z,42.87
2023-04-19T10:22:13.455Z,42.99
2023-04-19T10:23:13.447Z,43.12
2023-04-19T10:24:13.457Z,43.06
2023-04-19T10:25:20.486Z,42.82
2023-04-19T10:26:13.448Z,42.77
2023-04-19T10:27:13.466Z,42.84
2023-04-19T10:28:13.434Z,42.69
2023-04-19T10:29:13.611Z,42.74
2023-04-19T10:30:13.424Z,42.67
2023-04-19T10:31:13.456Z,42.63
2023-04-19T10:32:13.474Z,42.56
2023-04-19T10:33:13.402Z,42.55
2023-04-19T10:34:13.411Z,42.59
2023-04-19T10:35:14.641Z,42.79
2023-04-19T10:36:13.826Z,42.69
2023-04-19T10:37:13.394Z,43.28
2023-04-19T10:38:13.367Z,43.65
2023-04-19T10:39:13.480Z,43.94
2023-04-19T10:40:13.380Z,44.59
2023-04-19T10:41:16.457Z,44.80
2023-04-19T10:42:13.331Z,45.54
2023-04-19T10:43:13.336Z,45.28
2023-04-19T10:44:13.330Z,45.53
2023-04-19T10:45:13.309Z,45.84
2023-04-19T10:46:13.353Z,45.89
2023-04-19T10:47:14.710Z,45.97
2023-04-19T10:48:13.283Z,45.75
2023-04-19T10:49:13.635Z,45.85
2023-04-19T10:50:13.333Z,46.14
2023-04-19T10:51:13.329Z,46.21
2023-04-19T10:52:13.260Z,46.45
2023-04-19T10:53:14.216Z,46.38
2023-04-19T10:54:13.271Z,46.45
2023-04-19T10:55:20.725Z,46.75
2023-04-19T10:56:13.246Z,46.85
2023-04-19T10:57:13.236Z,47.78
2023-04-19T10:58:13.236Z,47.72
2023-04-19T10:59:13.345Z,47.39
2023-04-19T11:00:13.315Z,47.62
2023-04-19T11:01:13.213Z,47.66
2023-04-19T11:02:13.252Z,47.89
2023-04-19T11:03:13.327Z,48.03
2023-04-19T11:04:13.329Z,48.23
2023-04-19T11:05:13.172Z,48.97
2023-04-19T11:06:13.182Z,48.63
2023-04-19T11:07:13.176Z,49.01
2023-04-19T11:08:13.196Z,49.04
2023-04-19T11:09:13.324Z,49.37
2023-04-19T11:10:13.249Z,49.09
2023-04-19T11:11:13.139Z,49.13
2023-04-19T11:12:13.148Z,49.08
2023-04-19T11:13:13.113Z,49.52
2023-04-19T11:14:13.118Z,49.32
2023-04-19T11:15:13.129Z,49.48
2023-04-19T11:16:13.150Z,49.47
2023-04-19T11:17:13.083Z,49.21
2023-04-19T11:18:13.371Z,49.28
2023-04-19T11:19:13.117Z,49.20
2023-04-19T11:20:13.132Z,49.10
2023-04-19T11:21:13.131Z,49.00
2023-04-19T11:22:13.205Z,48.89
2023-04-19T11:23:13.186Z,48.82
2023-04-19T11:24:13.203Z,48.74
2023-04-19T11:25:13.209Z,48.67
2023-04-19T11:26:13.236Z,48.57
2023-04-19T11:27:13.306Z,48.62
2023-04-19T11:28:13.264Z,48.58
2023-04-19T11:29:13.615Z,48.66
2023-04-19T11:30:13.324Z,48.66
2023-04-19T11:31:13.412Z,48.66
2023-04-19T11:32:13.366Z,48.72
2023-04-19T11:33:13.371Z,48.82
2023-04-19T11:34:13.667Z,48.90
2023-04-19T11:35:13.396Z,48.92
2023-04-19T11:36:13.449Z,48.77
2023-04-19T11:37:13.427Z,48.74
2023-04-19T11:38:13.462Z,48.47
2023-04-19T11:39:13.458Z,48.23
2023-04-19T11:40:13.510Z,48.03
2023-04-19T11:41:13.505Z,47.80
2023-04-19T11:42:13.538Z,47.71
2023-04-19T11:43:13.534Z,47.47
2023-04-19T11:44:13.691Z,47.55
2023-04-19T11:45:22.338Z,47.68
2023-04-19T11:46:14.728Z,47.75
2023-04-19T11:47:13.599Z,47.63
2023-04-19T11:48:13.619Z,47.66
2023-04-19T11:49:13.563Z,47.59
2023-04-19T11:50:13.568Z,47.64
2023-04-19T11:51:13.533Z,47.59
2023-04-19T11:52:13.541Z,47.58
2023-04-19T11:53:13.552Z,47.64
2023-04-19T11:54:13.633Z,47.56
2023-04-19T11:55:13.533Z,47.45
2023-04-19T11:56:13.521Z,47.32
2023-04-19T11:57:13.521Z,47.11
2023-04-19T11:58:13.507Z,47.08
2023-04-19T11:59:13.522Z,47.10
2023-04-19T12:00:13.494Z,47.19
2023-04-19T12:01:13.483Z,47.11
2023-04-19T12:02:13.521Z,47.03
2023-04-19T12:03:13.753Z,46.99
2023-04-19T12:04:13.635Z,46.76
2023-04-19T12:05:13.658Z,46.73
2023-04-19T12:06:13.477Z,46.47
2023-04-19T12:07:13.452Z,45.70
2023-04-19T12:08:13.477Z,46.17
2023-04-19T12:09:13.636Z,46.18
2023-04-19T12:10:13.509Z,46.30
2023-04-19T12:11:13.573Z,46.42
2023-04-19T12:12:13.599Z,46.43
2023-04-19T12:13:13.581Z,46.33
2023-04-19T12:14:13.723Z,46.20
2023-04-19T12:15:13.662Z,43.71
2023-04-19T12:16:13.736Z,45.62
2023-04-19T12:17:13.696Z,45.71
2023-04-19T12:18:13.766Z,45.69
2023-04-19T12:19:13.920Z,45.82
2023-04-19T12:20:13.779Z,45.78
2023-04-19T12:21:13.821Z,45.72
2023-04-19T12:22:13.836Z,45.55
2023-04-19T12:23:13.850Z,45.46
2023-04-19T12:24:13.890Z,45.48
2023-04-19T12:25:13.888Z,45.68
2023-04-19T12:26:13.921Z,45.67
2023-04-19T12:27:13.927Z,45.83
2023-04-19T12:28:13.941Z,45.78
2023-04-19T12:29:14.196Z,45.60
2023-04-19T12:30:14.009Z,45.46
2023-04-19T12:31:14.061Z,45.68
2023-04-19T12:32:14.111Z,45.55
2023-04-19T12:33:14.052Z,45.33
2023-04-19T12:34:14.058Z,45.36
2023-04-19T12:35:14.063Z,45.69
2023-04-19T12:36:14.125Z,45.53
2023-04-19T12:37:14.143Z,45.62
2023-04-19T12:38:14.143Z,45.46
2023-04-19T12:39:14.378Z,45.44
2023-04-19T12:40:14.160Z,45.64
2023-04-19T12:41:14.259Z,45.78
2023-04-19T12:42:14.209Z,45.91
2023-04-19T12:43:14.210Z,45.80
2023-04-19T12:44:14.214Z,45.70
2023-04-19T12:45:14.249Z,45.57
2023-04-19T12:46:14.379Z,45.81
2023-04-19T12:47:14.280Z,45.87
2023-04-19T12:48:14.307Z,45.59
2023-04-19T12:49:14.618Z,45.56
2023-04-19T12:50:14.339Z,45.86
2023-04-19T12:51:14.379Z,45.73
2023-04-19T12:52:14.370Z,46.40
2023-04-19T12:53:14.472Z,46.29
2023-04-19T12:54:14.505Z,46.49
2023-04-19T12:55:14.412Z,46.81
2023-04-19T12:56:14.439Z,46.82
2023-04-19T12:57:14.442Z,47.09
2023-04-19T12:58:14.474Z,47.49
2023-04-19T12:59:14.758Z,47.75
2023-04-19T13:00:14.493Z,47.84
2023-04-19T13:01:14.549Z,48.08
2023-04-19T13:02:14.551Z,47.93
2023-04-19T13:03:14.688Z,48.16
2023-04-19T13:04:14.698Z,48.12
2023-04-19T13:05:14.483Z,48.09